Time;durP1;ratioP1;P1;durP2;ratioP2;P2;SDS_P1;SDS_P2;PMS_P1;PMS_P2;Temp;Humidity;BMP_temperature;BMP_pressure;BME280_temperature;BME280_humidity;BME280_pressure;Samples;Min_cycle;Max_cycle;Signal;HPM_P1;HPM_P2
2023/01/22 00:02:18;;;;;;;161.57;35.23;;;;;;;-145.18;100.00;46683.84;6123831;23;20093;-69
2023/01/22 00:04:44;;;;;;;186.20;35.27;;;;;;;-145.18;100.00;46687.75;6123908;23;20018;-69
2023/01/22 00:07:10;;;;;;;154.53;32.20;;;;;;;-145.18;100.00;46691.66;6123606;23;20006;-69
2023/01/22 00:09:35;;;;;;;149.73;31.10;;;;;;;-145.18;100.00;46691.66;6123629;23;20412;-69
2023/01/22 00:12:01;;;;;;;110.67;23.23;;;;;;;-145.18;100.00;46685.78;6122036;23;20010;-69
2023/01/22 00:14:26;;;;;;;123.27;31.47;;;;;;;-145.18;100.00;46691.66;6123698;23;20010;-69
2023/01/22 00:16:51;;;;;;;166.60;32.43;;;;;;;-145.18;100.00;46685.78;6123510;23;20044;-69
2023/01/22 00:19:17;;;;;;;132.13;33.60;;;;;;;-145.18;100.00;46681.88;6123737;23;20487;-70
2023/01/22 00:21:42;;;;;;;123.47;33.20;;;;;;;-145.18;100.00;46695.56;6123725;23;20010;-69
2023/01/22 00:24:07;;;;;;;104.70;27.97;;;;;;;-145.18;100.00;46695.56;6123391;23;20006;-69
2023/01/22 00:26:33;;;;;;;116.60;33.13;;;;;;;-145.18;100.00;46695.56;6123160;23;20037;-69
2023/01/22 00:28:58;;;;;;;107.87;32.03;;;;;;;-145.18;100.00;46681.88;6123260;23;20006;-69
2023/01/22 00:31:24;;;;;;;103.13;34.80;;;;;;;-145.18;100.00;46695.56;6123178;23;20020;-69
2023/01/22 00:33:50;;;;;;;110.28;32.47;;;;;;;-145.18;100.00;46683.84;6122059;23;20068;-69
2023/01/22 00:36:18;;;;;;;88.57;25.53;;;;;;;-145.18;100.00;46693.59;6123059;23;20041;-69
2023/01/22 00:38:44;;;;;;;115.38;34.60;;;;;;;-145.18;100.00;46693.59;6123187;23;20002;-69
2023/01/22 00:41:12;;;;;;;111.90;28.95;;;;;;;-145.18;100.00;46685.78;6123053;23;20061;-69
2023/01/22 00:43:37;;;;;;;115.07;33.90;;;;;;;-145.18;100.00;46691.66;6123264;23;20436;-69
2023/01/22 00:46:04;;;;;;;96.67;32.27;;;;;;;-145.18;100.00;46689.69;6122645;23;20057;-69
2023/01/22 00:48:29;;;;;;;110.38;32.03;;;;;;;-145.18;100.00;46693.59;6123029;23;20010;-69
2023/01/22 00:50:55;;;;;;;85.93;30.00;;;;;;;-145.18;100.00;46693.59;6121352;23;20010;-69
2023/01/22 00:53:20;;;;;;;89.83;30.27;;;;;;;-145.18;100.00;46683.84;6123144;23;20017;-69
2023/01/22 00:55:59;;;;;;;90.03;30.33;;;;;;;-145.18;100.00;46691.66;6122737;23;20017;-69
2023/01/22 00:58:26;;;;;;;84.47;30.40;;;;;;;-145.18;100.00;46687.75;6122870;23;20444;-69
2023/01/22 01:00:51;;;;;;;83.35;29.25;;;;;;;-145.18;100.00;46689.69;6123015;23;20010;-69
2023/01/22 01:03:29;;;;;;;82.70;29.33;;;;;;;-145.18;100.00;46685.78;6125175;23;20022;-69
2023/01/22 01:06:15;;;;;;;80.95;31.02;;;;;;;-145.18;100.00;46695.56;6122651;23;20021;-69
2023/01/22 01:08:42;;;;;;;78.50;30.40;;;;;;;-145.18;100.00;46691.66;6122767;23;20001;-69
2023/01/22 01:11:11;;;;;;;79.30;32.05;;;;;;;-145.18;100.00;46695.56;6121869;23;20049;-69
2023/01/22 01:13:40;;;;;;;77.13;28.52;;;;;;;-145.18;100.00;46687.75;6123102;23;20005;-69
2023/01/22 01:16:10;;;;;;;82.25;31.63;;;;;;;-145.18;100.00;46691.66;6122229;23;20006;-69
2023/01/22 01:18:36;;;;;;;74.47;29.05;;;;;;;-145.18;100.00;46695.56;6122813;23;20006;-69
2023/01/22 01:21:03;;;;;;;78.33;30.80;;;;;;;-145.18;100.00;46691.66;6122438;23;20057;-69
2023/01/22 01:23:29;;;;;;;75.60;29.13;;;;;;;-145.18;100.00;46693.59;6122415;23;20006;-69
2023/01/22 01:25:55;;;;;;;75.28;30.00;;;;;;;-145.18;100.00;46689.69;6122197;23;20018;-69
2023/01/22 01:28:21;;;;;;;73.47;29.47;;;;;;;-145.18;100.00;46695.56;6122681;23;20465;-69
2023/01/22 01:30:46;;;;;;;76.33;30.60;;;;;;;-145.18;100.00;46695.56;6122751;23;20018;-69
2023/01/22 01:33:12;;;;;;;64.13;27.27;;;;;;;-145.18;100.00;46691.66;6122113;23;20250;-68
2023/01/22 01:35:38;;;;;;;70.53;27.73;;;;;;;-145.18;100.00;46683.84;6122532;23;20014;-69
2023/01/22 01:38:04;;;;;;;66.43;24.13;;;;;;;-145.18;100.00;46691.66;6122259;23;20379;-69
2023/01/22 01:40:29;;;;;;;71.85;29.08;;;;;;;-145.18;100.00;46695.56;6122617;23;20002;-69
2023/01/22 01:42:55;;;;;;;70.07;28.50;;;;;;;-145.18;100.00;46695.56;6122376;23;20010;-69
2023/01/22 01:45:22;;;;;;;63.53;28.07;;;;;;;-145.18;100.00;46693.59;6120635;23;20010;-69
2023/01/22 01:47:51;;;;;;;65.35;27.08;;;;;;;-145.18;100.00;46689.69;6122313;23;20351;-69
2023/01/22 01:50:20;;;;;;;62.25;26.90;;;;;;;-145.18;100.00;46697.50;6122073;23;20085;-69
2023/01/22 01:52:46;;;;;;;61.90;26.90;;;;;;;-145.18;100.00;46693.59;6122359;23;20013;-69
2023/01/22 01:55:11;;;;;;;61.43;25.90;;;;;;;-145.18;100.00;46691.66;6122184;23;20006;-69
2023/01/22 01:57:38;;;;;;;60.50;26.03;;;;;;;-145.18;100.00;46699.47;6122300;23;20018;-69
2023/01/22 02:00:09;;;;;;;59.55;24.38;;;;;;;-145.18;100.00;46699.47;6125202;23;20049;-68
2023/01/22 02:02:35;;;;;;;52.75;22.95;;;;;;;-145.18;100.00;46695.56;6125374;23;20005;-69
2023/01/22 02:05:02;;;;;;;58.73;25.43;;;;;;;-145.18;100.00;46701.41;6129003;23;20097;-69
2023/01/22 02:07:27;;;;;;;50.63;22.92;;;;;;;-145.18;100.00;46697.50;6155022;23;20247;-69
2023/01/22 02:09:53;;;;;;;56.67;24.13;;;;;;;-145.18;100.00;46701.41;6154643;23;20033;-69
2023/01/22 02:12:18;;;;;;;53.00;22.20;;;;;;;-145.18;100.00;46701.41;6128789;23;20009;-69
2023/01/22 02:14:44;;;;;;;46.27;22.40;;;;;;;-145.18;100.00;46701.41;6155561;23;20010;-68
2023/01/22 02:17:12;;;;;;;54.45;24.80;;;;;;;-145.18;100.00;46701.41;6154996;23;20438;-68
2023/01/22 02:19:38;;;;;;;48.88;21.98;;;;;;;-145.18;100.00;46699.47;6154868;23;20039;-68
2023/01/22 02:22:24;;;;;;;52.90;20.73;;;;;;;-145.18;100.00;46701.41;6154397;23;20020;-69
2023/01/22 02:24:49;;;;;;;45.47;21.13;;;;;;;-145.18;100.00;46709.22;6155003;23;20009;-68
2023/01/22 02:27:15;;;;;;;50.50;21.93;;;;;;;-145.18;100.00;46705.31;6154565;23;20010;-68
2023/01/22 02:29:40;;;;;;;46.87;20.63;;;;;;;-145.18;100.00;46707.28;6154868;23;20017;-68
2023/01/22 02:32:06;;;;;;;49.20;21.70;;;;;;;-145.18;100.00;46705.31;6154244;23;20012;-68
2023/01/22 02:34:32;;;;;;;43.10;21.60;;;;;;;-145.18;100.00;46703.38;6154910;23;20076;-68
2023/01/22 02:36:57;;;;;;;45.83;19.57;;;;;;;-145.18;100.00;46705.31;6154816;23;20067;-68
2023/01/22 02:39:23;;;;;;;39.67;19.27;;;;;;;-145.18;100.00;46703.38;6154812;23;19997;-68
2023/01/22 02:41:49;;;;;;;46.40;19.30;;;;;;;-145.18;100.00;46707.28;6154585;23;20382;-68
2023/01/22 02:44:14;;;;;;;46.20;19.57;;;;;;;-145.18;100.00;46709.22;6154655;23;20006;-68
2023/01/22 02:46:39;;;;;;;40.67;19.00;;;;;;;-145.18;100.00;46707.28;6154573;23;20107;-68
2023/01/22 02:49:05;;;;;;;41.33;20.67;;;;;;;-145.18;100.00;46707.28;6154715;23;20032;-68
2023/01/22 02:51:30;;;;;;;47.77;19.63;;;;;;;-145.18;100.00;46709.22;6154250;23;20016;-68
2023/01/22 02:53:56;;;;;;;36.33;18.33;;;;;;;-145.18;100.00;46711.19;6154849;23;20056;-68
2023/01/22 02:56:21;;;;;;;42.17;19.67;;;;;;;-145.18;100.00;46707.28;6128912;23;20009;-68
2023/01/22 02:58:47;;;;;;;38.97;18.67;;;;;;;-145.18;100.00;46713.13;6154509;23;20017;-68
2023/01/22 03:03:56;;;;;;;40.80;17.65;;;;;;;-145.18;100.00;46717.03;6117802;23;20081;-67
2023/01/22 03:06:24;;;;;;;34.65;15.57;;;;;;;-145.18;100.00;46709.22;6148767;23;20454;-67
2023/01/22 03:08:59;;;;;;;37.50;17.45;;;;;;;-145.18;100.00;46717.03;6125210;23;20006;-67
2023/01/22 03:11:28;;;;;;;37.40;16.95;;;;;;;-145.18;100.00;46713.13;6124357;23;20006;-67
2023/01/22 03:22:08;;;;;;;29.10;15.23;;;;;;;-145.18;100.00;46717.03;6123905;23;20073;-67
2023/01/22 03:24:33;;;;;;;35.72;16.55;;;;;;;-145.18;100.00;46719.00;6124266;23;20515;-67
2023/01/22 03:26:59;;;;;;;33.07;16.03;;;;;;;-145.18;100.00;46720.94;6123318;23;20057;-66
2023/01/22 03:29:24;;;;;;;37.00;17.33;;;;;;;-145.18;100.00;46719.00;6124219;23;20010;-66
2023/01/22 03:31:50;;;;;;;37.27;17.23;;;;;;;-145.18;100.00;46722.91;6146704;23;20014;-67
2023/01/22 03:34:20;;;;;;;33.70;16.73;;;;;;;-145.18;100.00;46722.91;6124347;23;20093;-67
2023/01/22 03:36:45;;;;;;;32.95;16.58;;;;;;;-145.18;100.00;46722.91;6123793;23;20006;-67
2023/01/22 03:39:11;;;;;;;32.77;15.57;;;;;;;-145.18;100.00;46720.94;6124186;23;20009;-67
2023/01/22 03:41:36;;;;;;;36.93;16.47;;;;;;;-145.18;100.00;46724.84;6122294;23;20522;-67
2023/01/22 03:44:02;;;;;;;32.67;16.70;;;;;;;-145.18;100.00;46720.94;6123502;23;20065;-66
2023/01/22 03:46:28;;;;;;;34.10;15.50;;;;;;;-145.18;100.00;46722.91;6124067;23;20049;-66
2023/01/22 03:48:54;;;;;;;30.63;16.03;;;;;;;-145.18;100.00;46724.84;6123724;23;20089;-67
2023/01/22 03:51:19;;;;;;;30.97;15.47;;;;;;;-145.18;100.00;46724.84;6123504;23;20260;-67
2023/01/22 03:53:46;;;;;;;30.97;15.13;;;;;;;-145.18;100.00;46722.91;6123570;23;20608;-67
2023/01/22 03:56:17;;;;;;;30.90;15.63;;;;;;;-145.18;100.00;46722.91;6124146;23;20013;-67
2023/01/22 03:58:42;;;;;;;31.38;15.35;;;;;;;-145.18;100.00;46724.84;6123526;23;20010;-67
2023/01/22 04:01:11;;;;;;;30.57;14.83;;;;;;;-145.18;100.00;46728.75;6123729;23;20056;-67
2023/01/22 04:03:36;;;;;;;30.40;14.20;;;;;;;-145.18;100.00;46726.81;6123285;23;20433;-67
2023/01/22 04:06:02;;;;;;;29.10;13.80;;;;;;;-145.18;100.00;46728.75;6123886;23;20010;-67
2023/01/22 04:08:30;;;;;;;31.83;13.73;;;;;;;-145.18;100.00;46726.81;6123678;23;20343;-67
2023/01/22 04:10:56;;;;;;;27.92;14.15;;;;;;;-145.18;100.00;46728.75;6123379;23;20014;-67
2023/01/22 04:13:23;;;;;;;26.55;13.82;;;;;;;-145.18;100.00;46728.75;6123756;23;20089;-67
2023/01/22 04:15:49;;;;;;;32.67;14.93;;;;;;;-145.18;100.00;46724.84;6123409;23;20010;-67
2023/01/22 04:18:14;;;;;;;33.30;14.50;;;;;;;-145.18;100.00;46726.81;6123467;23;20032;-67
2023/01/22 04:20:40;;;;;;;27.47;13.77;;;;;;;-145.18;100.00;46726.81;6122559;23;20014;-67
2023/01/22 04:23:06;;;;;;;32.43;14.70;;;;;;;-145.18;100.00;46726.81;6122795;23;20425;-67
2023/01/22 04:25:32;;;;;;;28.58;13.80;;;;;;;-145.18;100.00;46726.81;6123611;23;20006;-67
2023/01/22 04:27:57;;;;;;;26.97;13.37;;;;;;;-145.18;100.00;46728.75;6123284;23;20013;-67
2023/01/22 04:30:23;;;;;;;24.03;12.60;;;;;;;-145.18;100.00;46726.81;6123756;23;20014;-67
2023/01/22 04:32:48;;;;;;;26.37;12.97;;;;;;;-145.18;100.00;46732.66;6123299;23;20021;-67
2023/01/22 04:35:14;;;;;;;26.60;13.50;;;;;;;-145.18;100.00;46736.56;6123135;23;20006;-67
2023/01/22 04:37:39;;;;;;;27.53;13.20;;;;;;;-145.18;100.00;46734.63;6123417;23;20057;-67
2023/01/22 04:40:05;;;;;;;29.03;14.10;;;;;;;-145.18;100.00;46732.66;6122183;23;20032;-67
2023/01/22 04:42:33;;;;;;;27.87;13.63;;;;;;;-145.18;100.00;46732.66;6123245;23;20377;-67
2023/01/22 04:44:59;;;;;;;25.30;13.63;;;;;;;-145.18;100.00;46728.75;6123346;23;20563;-67
2023/01/22 04:47:24;;;;;;;31.93;14.07;;;;;;;-145.18;100.00;46728.75;6122952;23;20094;-67
2023/01/22 04:49:49;;;;;;;34.77;15.27;;;;;;;-145.18;100.00;46722.91;6123375;23;20651;-67
2023/01/22 04:52:17;;;;;;;26.50;13.63;;;;;;;-145.18;100.00;46728.75;6123545;23;20010;-67
2023/01/22 04:54:42;;;;;;;28.23;13.25;;;;;;;-145.18;100.00;46732.66;6123361;23;20080;-67
2023/01/22 04:57:08;;;;;;;29.77;13.73;;;;;;;-145.18;100.00;46734.63;6122531;23;20088;-67
2023/01/22 04:59:34;;;;;;;27.70;14.10;;;;;;;-145.18;100.00;46726.81;6123340;23;20006;-67
2023/01/22 05:01:59;;;;;;;27.27;13.23;;;;;;;-145.18;100.00;46734.63;6122895;23;20020;-67
2023/01/22 05:04:25;;;;;;;30.67;14.90;;;;;;;-145.18;100.00;46734.63;6121702;23;20014;-67
2023/01/22 05:06:50;;;;;;;30.60;14.87;;;;;;;-145.18;100.00;46728.75;6123061;23;20016;-67
2023/01/22 05:09:16;;;;;;;26.70;13.20;;;;;;;-145.18;100.00;46726.81;6123085;23;20113;-67
2023/01/22 05:11:41;;;;;;;27.60;13.43;;;;;;;-145.18;100.00;46734.63;6123211;23;20017;-67
2023/01/22 05:14:07;;;;;;;30.20;14.07;;;;;;;-145.18;100.00;46726.81;6122870;23;20009;-67
2023/01/22 05:16:33;;;;;;;32.03;14.30;;;;;;;-145.18;100.00;46734.63;6123286;23;20006;-67
2023/01/22 05:18:59;;;;;;;35.35;13.52;;;;;;;-145.18;100.00;46732.66;6122400;23;20037;-67
2023/01/22 05:21:24;;;;;;;27.80;13.83;;;;;;;-145.18;100.00;46736.56;6123266;23;20021;-67
2023/01/22 05:23:49;;;;;;;29.23;13.43;;;;;;;-145.18;100.00;46732.66;6122712;23;20089;-67
2023/01/22 05:26:15;;;;;;;30.60;13.27;;;;;;;-145.18;100.00;46732.66;6123417;23;20419;-67
2023/01/22 05:28:40;;;;;;;27.63;13.20;;;;;;;-145.18;100.00;46732.66;6122890;23;20013;-67
2023/01/22 05:31:06;;;;;;;26.40;14.10;;;;;;;-145.18;100.00;46728.75;6122590;23;20021;-67
2023/01/22 05:33:32;;;;;;;31.90;14.43;;;;;;;-145.18;100.00;46728.75;6122272;23;20006;-67
2023/01/22 05:36:00;;;;;;;26.48;13.48;;;;;;;-145.18;100.00;46726.81;6122878;23;20021;-67
2023/01/22 05:38:27;;;;;;;27.65;14.32;;;;;;;-145.18;100.00;46734.63;6120364;23;20425;-68
2023/01/22 05:40:52;;;;;;;28.63;14.35;;;;;;;-145.18;100.00;46732.66;6122490;23;20040;-67
2023/01/22 05:43:17;;;;;;;30.60;14.63;;;;;;;-145.18;100.00;46730.72;6122444;23;20089;-67
2023/01/22 05:45:43;;;;;;;30.47;14.30;;;;;;;-145.18;100.00;46732.66;6121233;23;20018;-68
2023/01/22 05:48:08;;;;;;;27.37;14.57;;;;;;;-145.18;100.00;46738.53;6122428;23;20006;-68
2023/01/22 05:50:34;;;;;;;27.87;13.70;;;;;;;-145.18;100.00;46736.56;6122756;23;20021;-68
2023/01/22 05:52:59;;;;;;;27.60;13.67;;;;;;;-145.18;100.00;46734.63;6122609;23;20543;-68
2023/01/22 05:55:24;;;;;;;26.33;12.97;;;;;;;-145.18;100.00;46738.53;6122754;23;20346;-67
2023/01/22 05:57:50;;;;;;;30.00;14.17;;;;;;;-145.18;100.00;46736.56;6122485;23;20084;-68
2023/01/22 06:00:16;;;;;;;27.97;14.67;;;;;;;-145.18;100.00;46736.56;6122993;23;20028;-68
2023/01/22 06:02:41;;;;;;;28.90;14.52;;;;;;;-145.18;100.00;46738.53;6122495;23;20049;-68
2023/01/22 06:05:07;;;;;;;28.50;13.97;;;;;;;-145.18;100.00;46732.66;6122893;23;20519;-68
2023/01/22 06:07:32;;;;;;;27.67;14.13;;;;;;;-145.18;100.00;46732.66;6123022;23;20009;-68
2023/01/22 06:09:59;;;;;;;27.98;14.57;;;;;;;-145.18;100.00;46734.63;6123199;23;20299;-68
2023/01/22 06:12:24;;;;;;;30.23;14.00;;;;;;;-145.18;100.00;46734.63;6123313;23;20006;-68
2023/01/22 06:14:51;;;;;;;30.57;14.53;;;;;;;-145.18;100.00;46734.63;6123612;23;20014;-67
2023/01/22 06:17:17;;;;;;;27.83;13.80;;;;;;;-145.18;100.00;46738.53;6123338;23;20033;-67
2023/01/22 06:19:42;;;;;;;29.63;14.13;;;;;;;-145.18;100.00;46738.53;6123222;23;20060;-68
2023/01/22 06:22:07;;;;;;;30.60;15.37;;;;;;;-145.18;100.00;46736.56;6123179;23;20050;-67
2023/01/22 06:24:33;;;;;;;25.90;13.47;;;;;;;-145.18;100.00;46734.63;6121807;23;20024;-67
2023/01/22 06:26:58;;;;;;;33.00;14.07;;;;;;;-145.18;100.00;46738.53;6123382;23;20368;-68
2023/01/22 06:29:23;;;;;;;25.40;13.57;;;;;;;-145.18;100.00;46738.53;6122943;23;20014;-68
2023/01/22 06:31:49;;;;;;;27.97;12.93;;;;;;;-145.18;100.00;46734.63;6123361;23;20092;-68
2023/01/22 06:34:15;;;;;;;27.13;14.37;;;;;;;-145.18;100.00;46736.56;6121872;23;20017;-68
2023/01/22 06:36:40;;;;;;;32.08;13.80;;;;;;;-145.18;100.00;46734.63;6121322;23;20016;-68
2023/01/22 06:39:06;;;;;;;28.03;12.77;;;;;;;-145.18;100.00;46736.56;6122199;23;20395;-68
2023/01/22 06:41:31;;;;;;;26.93;13.77;;;;;;;-145.18;100.00;46734.63;6122626;23;20033;-68
2023/01/22 06:43:56;;;;;;;36.07;14.33;;;;;;;-145.18;100.00;46740.47;6122104;23;20013;-68
2023/01/22 06:46:22;;;;;;;23.87;13.20;;;;;;;-145.18;100.00;46736.56;6125155;23;20044;-68
2023/01/22 06:48:47;;;;;;;27.23;13.73;;;;;;;-145.18;100.00;46734.63;6124912;23;20010;-67
2023/01/22 06:51:13;;;;;;;31.57;12.77;;;;;;;-145.18;100.00;46740.47;6125265;23;20022;-68
2023/01/22 06:53:38;;;;;;;27.30;13.13;;;;;;;-145.18;100.00;46732.66;6124907;23;20466;-67
2023/01/22 06:56:04;;;;;;;23.00;12.67;;;;;;;-145.18;100.00;46738.53;6124909;23;20053;-67
2023/01/22 06:58:30;;;;;;;32.23;12.80;;;;;;;-145.18;100.00;46736.56;6125140;23;20701;-68
2023/01/22 07:01:04;;;;;;;25.90;12.87;;;;;;;-145.18;100.00;46736.56;6124918;23;20085;-68
2023/01/22 07:03:30;;;;;;;29.13;14.45;;;;;;;-145.18;100.00;46738.53;6116865;23;20343;-67
2023/01/22 07:05:59;;;;;;;25.77;14.63;;;;;;;-145.18;100.00;46736.56;6124622;23;20014;-68
2023/01/22 07:08:26;;;;;;;29.20;14.73;;;;;;;-145.18;100.00;46736.56;6124386;23;20045;-68
2023/01/22 07:10:51;;;;;;;27.33;13.88;;;;;;;-145.18;100.00;46738.53;6123849;23;20092;-68
2023/01/22 07:13:17;;;;;;;28.63;14.60;;;;;;;-145.18;100.00;46740.47;6123659;23;20053;-68
2023/01/22 07:15:42;;;;;;;33.17;14.37;;;;;;;-145.18;100.00;46742.44;6124307;23;20490;-68
2023/01/22 07:18:09;;;;;;;29.77;14.83;;;;;;;-145.18;100.00;46736.56;6117209;23;20045;-68
2023/01/22 07:20:35;;;;;;;25.73;13.57;;;;;;;-145.18;100.00;46736.56;6124208;23;19998;-67
2023/01/22 07:23:01;;;;;;;25.23;12.68;;;;;;;-145.18;100.00;46740.47;6123291;23;20081;-68
2023/01/22 07:25:26;;;;;;;27.37;14.37;;;;;;;-145.18;100.00;46738.53;6124464;23;20040;-68
2023/01/22 07:27:58;;;;;;;32.80;14.77;;;;;;;-145.18;100.00;46736.56;6123969;23;20083;-68
2023/01/22 07:30:24;;;;;;;25.55;14.63;;;;;;;-145.18;100.00;46736.56;6124508;23;20076;-68
2023/01/22 07:32:49;;;;;;;31.37;13.80;;;;;;;-145.18;100.00;46740.47;6123285;23;20342;-68
2023/01/22 07:35:14;;;;;;;29.20;13.87;;;;;;;-145.18;100.00;46736.56;6123399;23;20025;-68
2023/01/22 07:37:40;;;;;;;29.73;13.97;;;;;;;-145.18;100.00;46738.53;6121696;23;20006;-68
2023/01/22 07:40:06;;;;;;;28.47;14.30;;;;;;;-145.18;100.00;46746.34;6122131;23;20041;-68
2023/01/22 07:42:31;;;;;;;31.05;14.10;;;;;;;-145.18;100.00;46738.53;6122117;23;20014;-68
2023/01/22 07:44:56;;;;;;;27.17;13.57;;;;;;;-145.18;100.00;46742.44;6122167;23;20582;-68
2023/01/22 07:47:22;;;;;;;26.20;13.43;;;;;;;-145.18;100.00;46736.56;6121861;23;20068;-68
2023/01/22 07:49:47;;;;;;;26.27;13.70;;;;;;;-145.18;100.00;46732.66;6120381;23;20053;-68
2023/01/22 07:52:13;;;;;;;28.57;13.63;;;;;;;-145.18;100.00;46736.56;6123992;23;20085;-68
2023/01/22 07:54:38;;;;;;;26.13;13.50;;;;;;;-145.18;100.00;46728.75;6123397;23;20018;-68
2023/01/22 07:57:03;;;;;;;30.83;14.13;;;;;;;-145.18;100.00;46734.63;6121263;23;20459;-68
2023/01/22 07:59:29;;;;;;;26.70;13.00;;;;;;;-145.18;100.00;46732.66;6123712;23;20013;-68
2023/01/22 08:01:54;;;;;;;33.67;14.20;;;;;;;-145.18;100.00;46732.66;6123168;23;20063;-68
2023/01/22 08:04:20;;;;;;;27.40;13.43;;;;;;;-145.18;100.00;46728.75;6123364;23;20010;-68
2023/01/22 08:06:45;;;;;;;27.43;13.60;;;;;;;-145.18;100.00;46724.84;6123145;23;20423;-68
2023/01/22 08:09:11;;;;;;;25.77;13.40;;;;;;;-145.18;100.00;46726.81;6121972;23;20006;-68
2023/01/22 08:11:36;;;;;;;38.07;20.40;;;;;;;-145.18;100.00;46720.94;6123429;23;20013;-68
2023/01/22 08:14:02;;;;;;;41.07;19.17;;;;;;;-145.18;100.00;46722.91;6122067;23;20049;-68
2023/01/22 08:16:27;;;;;;;49.93;25.63;;;;;;;-145.18;100.00;46720.94;6121442;23;20321;-68
2023/01/22 08:18:54;;;;;;;32.23;14.37;;;;;;;-145.18;100.00;46707.28;6123005;23;20514;-68
2023/01/22 08:21:19;;;;;;;30.88;14.07;;;;;;;-145.18;100.00;46717.03;6123328;23;20025;-68
2023/01/22 08:23:45;;;;;;;31.63;15.53;;;;;;;-145.18;100.00;46707.28;6122956;23;20344;-68
2023/01/22 08:26:10;;;;;;;22.67;12.73;;;;;;;-145.18;100.00;46709.22;6123339;23;20041;-68
2023/01/22 08:28:37;;;;;;;29.67;13.00;;;;;;;-145.18;100.00;46709.22;6123083;23;20084;-67
2023/01/22 08:31:03;;;;;;;24.60;13.32;;;;;;;-145.18;100.00;46709.22;6122711;23;20014;-68
2023/01/22 08:33:30;;;;;;;29.30;13.83;;;;;;;-145.18;100.00;46707.28;6123148;23;20010;-68
2023/01/22 08:35:56;;;;;;;24.70;13.73;;;;;;;-145.18;100.00;46705.31;6122983;23;20002;-68
2023/01/22 08:38:21;;;;;;;23.47;11.63;;;;;;;-145.18;100.00;46705.31;6123126;23;20021;-68
2023/01/22 08:40:50;;;;;;;25.87;12.37;;;;;;;-145.18;100.00;46703.38;6122902;23;20010;-68
2023/01/22 08:43:16;;;;;;;23.08;11.00;;;;;;;-145.18;100.00;46697.50;6122883;23;20006;-68
2023/01/22 08:45:42;;;;;;;22.23;11.37;;;;;;;-145.18;100.00;46701.41;6123211;23;20010;-68
2023/01/22 08:48:07;;;;;;;16.90;9.87;;;;;;;-145.18;100.00;46691.66;6122859;23;20025;-68
2023/01/22 08:50:33;;;;;;;20.53;11.63;;;;;;;-145.18;100.00;46670.16;6122930;23;20029;-68
2023/01/22 08:52:58;;;;;;;23.90;12.03;;;;;;;-145.18;100.00;46660.41;6122508;23;20036;-68
2023/01/22 08:55:24;;;;;;;27.57;13.17;;;;;;;-145.18;100.00;46644.78;6123013;23;20055;-68
2023/01/22 08:57:54;;;;;;;28.30;14.00;;;;;;;-145.18;100.00;46623.28;6120970;23;20461;-68
2023/01/22 09:00:20;;;;;;;21.17;11.98;;;;;;;-145.18;100.00;46621.31;6122858;23;20111;-68
2023/01/22 09:02:46;;;;;;;23.95;12.25;;;;;;;-145.18;100.00;46613.50;6122228;23;20025;-68
2023/01/22 09:05:11;;;;;;;22.93;11.53;;;;;;;-145.18;100.00;46650.63;6123012;23;20010;-68
2023/01/22 09:07:36;;;;;;;21.80;12.27;;;;;;;-145.18;100.00;46640.88;6123117;23;20017;-68
2023/01/22 09:10:03;;;;;;;20.47;12.27;;;;;;;-145.18;100.00;46650.63;6122263;23;20713;-68
2023/01/22 09:12:28;;;;;;;21.15;10.68;;;;;;;-145.18;100.00;46652.59;6122776;23;20010;-68
2023/01/22 09:14:54;;;;;;;19.23;10.73;;;;;;;-145.18;100.00;46652.59;6121959;23;20075;-68
2023/01/22 09:17:19;;;;;;;19.30;10.80;;;;;;;-145.18;100.00;46650.63;6122916;23;20016;-68
2023/01/22 09:19:44;;;;;;;21.17;11.00;;;;;;;-145.18;100.00;46650.63;6121799;23;20493;-68
2023/01/22 09:22:10;;;;;;;19.97;10.63;;;;;;;-145.18;100.00;46636.94;6122265;23;20065;-68
2023/01/22 09:24:35;;;;;;;20.20;9.77;;;;;;;-145.18;100.00;46597.88;6120608;23;20014;-68
2023/01/22 09:27:01;;;;;;;15.97;8.90;;;;;;;-145.18;100.00;46597.88;6119176;23;20080;-68
2023/01/22 09:29:26;;;;;;;20.30;11.37;;;;;;;-145.18;100.00;46603.75;6122077;23;20432;-68
2023/01/22 09:31:52;;;;;;;26.23;10.73;;;;;;;-145.18;100.00;46593.97;6121304;23;20343;-68
2023/01/22 09:34:17;;;;;;;18.57;11.10;;;;;;;-145.18;100.00;46599.84;6120540;23;20010;-68
2023/01/22 09:36:42;;;;;;;20.87;10.83;;;;;;;-145.18;100.00;46603.75;6119603;23;20470;-68
2023/01/22 09:39:08;;;;;;;20.47;10.97;;;;;;;-145.18;100.00;46603.75;6120724;23;20006;-68
2023/01/22 09:41:40;;;;;;;16.63;10.07;;;;;;;-145.18;100.00;46603.75;6121009;23;20016;-68
2023/01/22 09:44:17;;;;;;;20.45;9.98;;;;;;;-145.18;100.00;46615.47;6120346;23;20300;-68
2023/01/22 09:46:46;;;;;;;17.35;10.25;;;;;;;-145.18;100.00;46615.47;6121549;23;20021;-68
2023/01/22 09:49:15;;;;;;;19.60;10.18;;;;;;;-145.18;100.00;46615.47;6121903;23;20034;-68
2023/01/22 09:51:46;;;;;;;17.38;9.85;;;;;;;-145.18;100.00;46617.41;6120388;23;20020;-68
2023/01/22 09:54:14;;;;;;;19.02;10.50;;;;;;;-145.18;100.00;46619.38;6121049;23;20058;-68
2023/01/22 09:56:45;;;;;;;23.45;10.23;;;;;;;-145.18;100.00;46613.50;6120835;23;20471;-68
2023/01/22 09:59:20;;;;;;;15.75;9.93;;;;;;;-145.18;100.00;46615.47;6122127;23;20328;-68
2023/01/22 10:01:53;;;;;;;18.80;10.13;;;;;;;-145.18;100.00;46621.31;6122462;23;20018;-68
2023/01/22 10:04:31;;;;;;;18.15;10.05;;;;;;;-145.18;100.00;46617.41;6134600;23;20017;-68
2023/01/22 10:07:00;;;;;;;20.65;9.75;;;;;;;-145.18;100.00;46617.41;6121469;23;20093;-68
2023/01/22 10:09:29;;;;;;;17.40;9.65;;;;;;;-145.18;100.00;46619.38;6121986;23;20037;-68
2023/01/22 10:11:56;;;;;;;18.83;9.85;;;;;;;-145.18;100.00;46625.22;6121408;23;20081;-68
2023/01/22 10:14:25;;;;;;;15.77;9.48;;;;;;;-145.18;100.00;46623.28;6121926;23;20006;-68
2023/01/22 10:16:50;;;;;;;16.65;9.38;;;;;;;-145.18;100.00;46625.22;6122148;23;20014;-68
2023/01/22 10:19:41;;;;;;;16.80;9.57;;;;;;;-145.18;100.00;46627.19;6122460;23;20010;-68
2023/01/22 10:22:16;;;;;;;15.85;8.32;;;;;;;-145.18;100.00;46623.28;6124210;23;20025;-68
2023/01/22 10:24:41;;;;;;;14.85;8.45;;;;;;;-145.18;100.00;46629.13;6124029;23;20010;-68
2023/01/22 10:27:15;;;;;;;16.70;7.87;;;;;;;-145.18;100.00;46631.09;6124159;23;20076;-68
2023/01/22 10:29:44;;;;;;;19.80;8.07;;;;;;;-145.18;100.00;46640.88;6124371;23;20025;-68
2023/01/22 10:32:23;;;;;;;22.17;9.65;;;;;;;-145.18;100.00;46638.91;6124214;23;20025;-68
2023/01/22 10:34:57;;;;;;;17.40;9.40;;;;;;;-145.18;100.00;46633.06;6123822;23;20009;-68
2023/01/22 10:37:23;;;;;;;14.70;7.95;;;;;;;-145.18;100.00;46642.81;6124395;23;20013;-68
2023/01/22 10:39:51;;;;;;;14.43;8.67;;;;;;;-145.18;100.00;46636.94;6123846;23;20013;-68
2023/01/22 10:42:23;;;;;;;16.58;8.48;;;;;;;-145.18;100.00;46646.72;6124309;23;20390;-68
2023/01/22 10:44:48;;;;;;;15.02;8.73;;;;;;;-145.18;100.00;46642.81;6121646;23;20009;-68
2023/01/22 10:47:32;;;;;;;13.23;7.90;;;;;;;-145.18;100.00;46646.72;6123674;23;20005;-68
2023/01/22 10:50:14;;;;;;;20.83;8.93;;;;;;;-145.18;100.00;46654.53;6123539;23;20014;-68
2023/01/22 10:52:49;;;;;;;12.20;5.45;;;;;;;-145.18;100.00;46656.50;6123960;23;20010;-68
2023/01/22 10:55:24;;;;;;;14.43;8.55;;;;;;;-145.18;100.00;46658.44;6123990;23;20085;-68
2023/01/22 10:58:17;;;;;;;14.82;8.45;;;;;;;-145.18;100.00;46650.63;6124015;23;20365;-68
2023/01/22 11:00:42;;;;;;;16.23;7.82;;;;;;;-145.18;100.00;46656.50;6114441;23;20046;-68
2023/01/22 11:03:23;;;;;;;16.57;7.93;;;;;;;-145.18;100.00;46656.50;6121521;23;20030;-69
2023/01/22 11:05:56;;;;;;;13.52;7.85;;;;;;;-145.18;100.00;46652.59;6153314;23;20451;-68